Terminal Aerodrome Forecast
Issued by NWS

Home | Current Version | Previous Version | Text Only | Print | Product List | Glossary On
Versions: 1 2 3 4 5 6 7 8 9 10 11 12 13 14
000
FTUS42 KMLB 260256 AAA
TAFLEE
TAF AMD
KLEE 260256Z 2603/2624 23010KT P6SM VCSH SCT015 BKN025 OVC110
      TEMPO 2603/2605 30015G25KT 3SM +TSRA SCT010 BKN025CB OVC060
     FM260800 23008KT P6SM SCT005 BKN020 BKN080
     FM261500 25015G26KT P6SM VCSH BKN035 BKN100=

USA.gov is the U.S. government's official web portal to all federal, state and local government web resources and services.